createdAt,value
2022-08-19T00:00:16.268Z,42.67
2022-08-19T00:02:50.139Z,42.15
2022-08-19T00:05:21.345Z,42.09
2022-08-19T00:07:52.117Z,42.61
2022-08-19T00:10:23.072Z,42.23
2022-08-19T00:12:54.513Z,42.50
2022-08-19T00:15:25.462Z,42.28
2022-08-19T00:17:57.047Z,42.40
2022-08-19T00:20:28.077Z,42.46
2022-08-19T00:22:59.917Z,42.48
2022-08-19T00:25:30.817Z,42.61
2022-08-19T00:28:01.212Z,42.59
2022-08-19T00:30:30.376Z,42.77
2022-08-19T00:33:00.672Z,42.26
2022-08-19T00:35:31.376Z,41.74
2022-08-19T00:38:02.176Z,42.83
2022-08-19T00:40:33.018Z,44.05
2022-08-19T00:43:03.616Z,44.03
2022-08-19T00:45:37.517Z,43.81
2022-08-19T00:48:13.308Z,43.53
2022-08-19T00:50:51.730Z,43.95
2022-08-19T00:53:24.733Z,43.63
2022-08-19T00:55:58.345Z,43.80
2022-08-19T00:58:32.212Z,42.51
2022-08-19T01:01:05.645Z,41.48
2022-08-19T01:03:56.482Z,41.23
2022-08-19T01:06:23.184Z,41.31
2022-08-19T01:08:52.487Z,40.86
2022-08-19T01:11:22.442Z,40.20
2022-08-19T01:13:54.163Z,40.60
2022-08-19T01:16:27.259Z,40.63
2022-08-19T01:18:57.696Z,40.20
2022-08-19T01:21:39.962Z,40.67
2022-08-19T01:24:09.298Z,41.17
2022-08-19T01:26:45.274Z,40.55
2022-08-19T01:29:15.234Z,40.28
2022-08-19T01:31:43.901Z,40.91
2022-08-19T01:34:11.865Z,40.64
2022-08-19T01:36:46.569Z,40.04
2022-08-19T01:39:18.380Z,40.51
2022-08-19T01:41:48.702Z,40.50
2022-08-19T01:44:19.273Z,39.82
2022-08-19T01:46:48.664Z,40.29
2022-08-19T01:49:18.641Z,40.32
2022-08-19T01:51:48.311Z,40.98
2022-08-19T01:54:22.842Z,40.83
2022-08-19T01:57:01.003Z,41.05
2022-08-19T01:59:29.561Z,41.13
2022-08-19T02:01:57.663Z,40.29
2022-08-19T02:04:26.732Z,40.70
2022-08-19T02:06:54.219Z,41.22
2022-08-19T02:09:21.783Z,40.97
2022-08-19T02:11:50.553Z,41.68
2022-08-19T02:14:18.727Z,41.53
2022-08-19T02:16:47.375Z,41.79
2022-08-19T02:19:15.770Z,41.37
2022-08-19T02:21:45.379Z,41.29
2022-08-19T02:24:14.658Z,41.08
2022-08-19T02:26:45.116Z,41.50
2022-08-19T02:29:15.014Z,41.53
2022-08-19T02:31:46.134Z,41.42
2022-08-19T02:34:16.404Z,41.38
2022-08-19T02:36:51.814Z,41.93
2022-08-19T02:39:22.219Z,41.26
2022-08-19T02:41:54.806Z,42.05
2022-08-19T02:44:31.249Z,41.88
2022-08-19T02:47:01.579Z,41.61
2022-08-19T02:49:34.759Z,41.83
2022-08-19T02:52:05.827Z,41.17
2022-08-19T02:54:35.890Z,41.15
2022-08-19T02:57:04.050Z,41.15
2022-08-19T02:59:33.761Z,40.63
2022-08-19T03:02:02.423Z,40.52
2022-08-19T03:04:30.806Z,40.90
2022-08-19T03:07:10.425Z,40.91
2022-08-19T03:09:39.235Z,40.83
2022-08-19T03:12:08.327Z,41.00
2022-08-19T03:14:36.671Z,40.65
2022-08-19T03:17:05.609Z,40.72
2022-08-19T03:19:33.518Z,40.66
2022-08-19T03:22:01.851Z,40.21
2022-08-19T03:24:29.951Z,40.67
2022-08-19T03:26:59.819Z,41.18
2022-08-19T03:29:32.789Z,40.58
2022-08-19T03:32:05.153Z,41.28
2022-08-19T03:34:39.038Z,41.01
2022-08-19T03:37:13.418Z,40.93
2022-08-19T03:39:43.322Z,40.79
2022-08-19T03:42:38.779Z,41.15
2022-08-19T03:45:00.464Z,40.80
2022-08-19T03:47:28.756Z,41.27
2022-08-19T03:49:56.690Z,41.27
2022-08-19T03:52:24.866Z,41.19
2022-08-19T03:54:53.999Z,41.14
2022-08-19T03:57:30.652Z,41.26
2022-08-19T04:00:12.531Z,41.53
2022-08-19T04:02:58.138Z,41.41
2022-08-19T04:05:29.759Z,41.29
2022-08-19T04:08:00.101Z,41.68
2022-08-19T04:10:29.383Z,41.29
2022-08-19T04:12:57.213Z,41.37
2022-08-19T04:15:26.674Z,41.46
2022-08-19T04:17:55.818Z,41.42
2022-08-19T04:20:23.424Z,41.74
2022-08-19T04:22:52.217Z,41.71
2022-08-19T04:25:19.955Z,41.36
2022-08-19T04:27:49.541Z,41.62
2022-08-19T04:30:18.920Z,41.53
2022-08-19T04:32:47.612Z,41.78
2022-08-19T04:35:16.769Z,41.52
2022-08-19T04:37:46.769Z,41.43
2022-08-19T04:40:33.903Z,41.97
2022-08-19T04:43:03.225Z,41.92
2022-08-19T04:45:39.666Z,41.78
2022-08-19T04:48:26.877Z,41.76
2022-08-19T04:51:00.073Z,41.84
2022-08-19T04:53:29.927Z,41.55
2022-08-19T04:56:09.436Z,41.71
2022-08-19T04:58:43.393Z,42.09
2022-08-19T05:01:18.585Z,42.56
2022-08-19T05:03:48.382Z,41.86
2022-08-19T05:06:18.337Z,42.07
2022-08-19T05:08:47.785Z,42.17
2022-08-19T05:11:26.639Z,41.52
2022-08-19T05:13:56.811Z,41.61
2022-08-19T05:16:26.683Z,41.60
2022-08-19T05:19:14.764Z,41.30
2022-08-19T05:22:01.844Z,41.19
2022-08-19T05:24:30.405Z,41.81
2022-08-19T05:27:03.507Z,41.30
2022-08-19T05:29:38.228Z,40.88
2022-08-19T05:32:10.500Z,40.50
2022-08-19T05:34:39.503Z,40.53
2022-08-19T05:37:08.587Z,40.64
2022-08-19T05:39:38.250Z,41.11
2022-08-19T05:42:09.018Z,41.49
2022-08-19T05:44:42.350Z,40.82
2022-08-19T05:47:10.199Z,40.23
2022-08-19T05:49:39.733Z,40.51
2022-08-19T05:52:11.905Z,40.50
2022-08-19T05:54:42.718Z,40.12
2022-08-19T05:57:12.070Z,39.99
2022-08-19T05:59:41.647Z,39.89
2022-08-19T06:02:10.081Z,39.67
2022-08-19T06:04:40.492Z,39.75
2022-08-19T06:07:12.208Z,39.04
2022-08-19T06:09:43.741Z,38.71
2022-08-19T06:12:35.591Z,38.60
2022-08-19T06:15:10.098Z,38.77
2022-08-19T06:17:38.999Z,37.91
2022-08-19T06:20:14.995Z,37.23
2022-08-19T06:22:45.573Z,37.42
2022-08-19T06:25:15.323Z,37.07
2022-08-19T06:28:14.798Z,37.47
2022-08-19T06:30:32.195Z,37.05
2022-08-19T06:33:00.263Z,37.54
2022-08-19T06:35:30.991Z,36.79
2022-08-19T06:38:01.551Z,36.78
2022-08-19T06:40:30.063Z,36.68
2022-08-19T06:43:01.573Z,36.58
2022-08-19T06:45:34.878Z,36.69
2022-08-19T06:48:09.388Z,36.20
2022-08-19T06:50:39.858Z,35.82
2022-08-19T06:53:08.554Z,35.88
2022-08-19T06:55:36.482Z,35.67
2022-08-19T06:58:06.373Z,35.49
2022-08-19T07:00:34.954Z,35.00
2022-08-19T07:03:06.403Z,34.80
2022-08-19T07:05:45.548Z,34.76
2022-08-19T07:08:14.710Z,34.96
2022-08-19T07:10:47.500Z,34.93
2022-08-19T07:13:15.358Z,34.31
2022-08-19T07:15:43.342Z,34.04
2022-08-19T07:18:11.686Z,34.16
2022-08-19T07:20:41.779Z,33.53
2022-08-19T07:23:16.120Z,33.27
2022-08-19T07:25:44.946Z,33.00
2022-08-19T07:28:24.106Z,32.78
2022-08-19T07:30:53.299Z,32.99
2022-08-19T07:33:21.864Z,32.88
2022-08-19T07:35:50.960Z,32.99
2022-08-19T07:38:18.913Z,32.48
2022-08-19T07:40:47.532Z,32.34
2022-08-19T07:43:17.315Z,31.81
2022-08-19T07:45:46.550Z,31.63
2022-08-19T07:48:15.524Z,31.38
2022-08-19T07:50:43.147Z,31.16
2022-08-19T07:53:11.115Z,31.04
2022-08-19T07:55:43.583Z,30.82
2022-08-19T07:58:15.938Z,30.47
2022-08-19T08:00:45.216Z,30.05
2022-08-19T08:03:15.202Z,30.11
2022-08-19T08:06:02.618Z,30.25
2022-08-19T08:08:50.366Z,29.93
2022-08-19T08:11:24.056Z,29.38
2022-08-19T08:14:00.367Z,28.64
2022-08-19T08:16:32.478Z,28.57
2022-08-19T08:19:00.578Z,28.33
2022-08-19T08:21:29.112Z,28.51
2022-08-19T08:23:57.311Z,28.04
2022-08-19T08:26:27.294Z,27.36
2022-08-19T08:28:56.167Z,26.70
2022-08-19T08:31:24.789Z,26.94
2022-08-19T08:33:53.446Z,26.52
2022-08-19T08:36:21.378Z,26.44
2022-08-19T08:38:49.360Z,25.76
2022-08-19T08:41:47.722Z,25.36
2022-08-19T08:44:24.956Z,25.03
2022-08-19T08:46:58.787Z,24.83
2022-08-19T08:49:29.477Z,24.51
2022-08-19T08:52:04.383Z,24.36
2022-08-19T08:54:39.988Z,24.40
2022-08-19T08:57:19.430Z,24.52
2022-08-19T08:59:51.844Z,24.32
2022-08-19T09:02:20.808Z,24.34
2022-08-19T09:04:49.403Z,24.14
2022-08-19T09:07:34.813Z,24.29
2022-08-19T09:10:35.361Z,24.27
2022-08-19T09:13:37.835Z,23.79
2022-08-19T09:16:14.473Z,23.59
2022-08-19T09:18:59.106Z,23.58
2022-08-19T09:21:33.012Z,22.78
2022-08-19T09:24:03.382Z,22.24
2022-08-19T09:26:48.189Z,22.84
2022-08-19T09:29:22.700Z,22.73
2022-08-19T09:31:51.718Z,22.17
2022-08-19T09:34:22.123Z,21.67
2022-08-19T09:36:54.661Z,21.90
2022-08-19T09:39:23.106Z,21.86
2022-08-19T09:41:51.302Z,21.70
2022-08-19T09:44:21.925Z,21.60
2022-08-19T09:46:52.025Z,21.46
2022-08-19T09:49:22.507Z,21.72
2022-08-19T09:51:52.561Z,21.50
2022-08-19T09:54:23.736Z,21.46
2022-08-19T09:56:54.535Z,21.51
2022-08-19T09:59:22.597Z,21.44
2022-08-19T10:01:50.964Z,21.48
2022-08-19T10:04:19.895Z,21.66
2022-08-19T10:06:53.497Z,21.36
2022-08-19T10:09:26.226Z,21.42
2022-08-19T10:12:03.706Z,21.10
2022-08-19T10:14:32.413Z,21.08
2022-08-19T10:17:01.397Z,20.88
2022-08-19T10:19:52.678Z,20.62
2022-08-19T10:22:25.677Z,20.67
2022-08-19T10:24:54.978Z,20.84
2022-08-19T10:27:22.806Z,20.71
2022-08-19T10:29:50.871Z,20.60
2022-08-19T10:32:19.257Z,21.00
2022-08-19T10:35:06.105Z,20.69
2022-08-19T10:37:34.512Z,20.32
2022-08-19T10:40:05.371Z,20.00
2022-08-19T10:42:33.804Z,19.65
2022-08-19T10:45:06.932Z,19.44
2022-08-19T10:47:34.875Z,19.42
2022-08-19T10:50:22.767Z,19.09
2022-08-19T10:52:57.284Z,18.88
2022-08-19T10:55:43.762Z,18.89
2022-08-19T10:58:13.513Z,19.02
2022-08-19T11:00:43.622Z,18.62
2022-08-19T11:03:12.165Z,18.58
2022-08-19T11:05:40.755Z,18.32
2022-08-19T11:08:22.516Z,18.35
2022-08-19T11:11:01.020Z,18.00
2022-08-19T11:13:30.358Z,17.96
2022-08-19T11:16:09.262Z,18.02
2022-08-19T11:18:43.860Z,18.58
2022-08-19T11:21:18.466Z,18.12
2022-08-19T11:23:48.135Z,17.98
2022-08-19T11:26:16.736Z,18.31
2022-08-19T11:28:44.518Z,18.20
2022-08-19T11:31:20.527Z,18.29
2022-08-19T11:33:51.992Z,18.55
2022-08-19T11:36:22.493Z,18.46
2022-08-19T11:38:50.945Z,18.21
2022-08-19T11:41:21.540Z,18.82
2022-08-19T11:43:50.450Z,18.86
2022-08-19T11:46:18.764Z,18.27
2022-08-19T11:48:46.545Z,18.19
2022-08-19T11:51:20.590Z,18.21
2022-08-19T11:53:49.105Z,17.89
2022-08-19T11:56:17.301Z,18.33
2022-08-19T11:58:44.859Z,18.01
2022-08-19T12:01:15.897Z,17.91
2022-08-19T12:03:49.032Z,18.15
2022-08-19T12:06:19.895Z,18.62
2022-08-19T12:08:48.600Z,18.58
2022-08-19T12:11:16.980Z,18.85
2022-08-19T12:13:48.799Z,18.72
2022-08-19T12:16:19.912Z,18.46
2022-08-19T12:18:48.247Z,18.76
2022-08-19T12:21:27.683Z,18.55
2022-08-19T12:23:56.737Z,18.68
2022-08-19T12:26:26.264Z,18.71
2022-08-19T12:28:54.491Z,19.32
2022-08-19T12:31:22.431Z,19.23
2022-08-19T12:33:50.945Z,19.06
2022-08-19T12:36:18.982Z,18.79
2022-08-19T12:38:47.926Z,18.90
2022-08-19T12:41:19.325Z,18.83
2022-08-19T12:43:49.276Z,18.22
2022-08-19T12:46:19.260Z,18.92
2022-08-19T12:48:47.310Z,18.41
2022-08-19T12:51:20.919Z,18.27
2022-08-19T12:53:49.597Z,18.79
2022-08-19T12:56:22.289Z,18.07
2022-08-19T12:58:52.999Z,18.64
2022-08-19T13:01:23.528Z,19.17
2022-08-19T13:03:55.150Z,19.55
2022-08-19T13:06:23.909Z,19.18
2022-08-19T13:08:57.711Z,19.20
2022-08-19T13:11:27.838Z,18.98
2022-08-19T13:13:56.900Z,19.10
2022-08-19T13:16:24.586Z,19.33
2022-08-19T13:18:53.070Z,19.08
2022-08-19T13:21:23.934Z,18.95
2022-08-19T13:23:52.050Z,19.19
2022-08-19T13:26:19.930Z,19.17
2022-08-19T13:29:07.133Z,19.19
2022-08-19T13:31:55.640Z,19.31
2022-08-19T13:34:31.920Z,19.49
2022-08-19T13:37:00.461Z,20.37
2022-08-19T13:39:29.011Z,21.33
2022-08-19T13:41:57.491Z,22.38
2022-08-19T13:44:25.627Z,23.41
2022-08-19T13:46:54.325Z,23.38
2022-08-19T13:49:24.240Z,24.01
2022-08-19T13:51:51.982Z,24.48
2022-08-19T13:54:20.023Z,24.78
2022-08-19T13:56:47.671Z,24.40
2022-08-19T13:59:15.589Z,24.65
2022-08-19T14:01:44.267Z,24.29
2022-08-19T14:04:12.515Z,24.79
2022-08-19T14:06:40.666Z,25.08
2022-08-19T14:09:08.968Z,25.01
2022-08-19T14:11:38.532Z,24.61
2022-08-19T14:14:06.631Z,24.43
2022-08-19T14:16:34.715Z,24.10
2022-08-19T14:19:03.223Z,23.61
2022-08-19T14:21:31.028Z,23.78
2022-08-19T14:23:59.341Z,24.42
2022-08-19T14:26:28.162Z,24.00
2022-08-19T14:28:58.394Z,24.52
2022-08-19T14:31:30.756Z,23.43
2022-08-19T14:33:59.403Z,21.31
2022-08-19T14:36:27.867Z,20.57
2022-08-19T14:38:56.464Z,20.31
2022-08-19T14:41:25.175Z,20.09
2022-08-19T14:43:54.778Z,20.17
2022-08-19T14:46:26.272Z,20.20
2022-08-19T14:48:57.537Z,20.53
2022-08-19T14:51:28.215Z,21.25
2022-08-19T14:53:57.200Z,21.19
2022-08-19T14:56:31.413Z,21.13
2022-08-19T14:59:02.157Z,21.43
2022-08-19T15:01:31.538Z,21.36
2022-08-19T15:04:00.438Z,21.59
2022-08-19T15:06:29.299Z,21.60
2022-08-19T15:09:04.875Z,21.44
2022-08-19T15:11:35.885Z,21.98
2022-08-19T15:14:11.120Z,21.25
2022-08-19T15:16:41.586Z,21.21
2022-08-19T15:19:15.669Z,21.78
2022-08-19T15:21:46.919Z,21.37
2022-08-19T15:24:19.726Z,21.37
2022-08-19T15:26:48.082Z,22.05
2022-08-19T15:29:18.109Z,21.87
2022-08-19T15:31:51.819Z,21.80
2022-08-19T15:34:24.152Z,21.75
2022-08-19T15:37:02.142Z,22.01
2022-08-19T15:39:33.489Z,22.03
2022-08-19T15:42:06.963Z,22.06
2022-08-19T15:44:42.638Z,22.13
2022-08-19T15:47:12.768Z,22.18
2022-08-19T15:49:47.513Z,22.30
2022-08-19T15:52:18.398Z,22.27
2022-08-19T15:54:52.639Z,22.50
2022-08-19T15:57:23.264Z,22.80
2022-08-19T16:00:14.036Z,22.72
2022-08-19T16:03:03.574Z,22.93
2022-08-19T16:05:52.878Z,23.09
2022-08-19T16:08:26.665Z,23.55
2022-08-19T16:10:55.200Z,23.57
2022-08-19T16:13:27.964Z,23.53
2022-08-19T16:15:57.555Z,23.70
2022-08-19T16:18:28.307Z,23.83
2022-08-19T16:20:57.499Z,23.68
2022-08-19T16:23:35.553Z,23.78
2022-08-19T16:26:03.810Z,24.00
2022-08-19T16:28:39.055Z,24.40
2022-08-19T16:31:14.199Z,24.58
2022-08-19T16:33:51.389Z,24.74
2022-08-19T16:36:27.091Z,25.64
2022-08-19T16:39:01.806Z,25.86
2022-08-19T16:41:31.583Z,26.34
2022-08-19T16:44:03.252Z,26.04
2022-08-19T16:46:33.764Z,27.07
2022-08-19T16:49:05.610Z,27.80
2022-08-19T16:51:37.000Z,27.52
2022-08-19T16:54:06.025Z,27.84
2022-08-19T16:56:34.292Z,27.05
2022-08-19T16:59:04.054Z,27.62
2022-08-19T17:01:37.288Z,27.59
2022-08-19T17:04:05.261Z,27.77
2022-08-19T17:06:35.669Z,28.25
2022-08-19T17:09:06.881Z,28.70
2022-08-19T17:11:41.559Z,28.64
2022-08-19T17:14:11.820Z,27.89
2022-08-19T17:16:40.046Z,27.92
2022-08-19T17:19:08.678Z,28.14
2022-08-19T17:21:40.857Z,28.46
2022-08-19T17:24:08.995Z,29.34
2022-08-19T17:26:40.133Z,32.84
2022-08-19T17:29:08.826Z,33.34
2022-08-19T17:31:40.740Z,33.13
2022-08-19T17:34:12.407Z,32.46
2022-08-19T17:36:40.869Z,31.68
2022-08-19T17:39:09.703Z,31.24
2022-08-19T17:41:41.084Z,31.54
2022-08-19T17:44:09.979Z,30.94
2022-08-19T17:46:37.912Z,30.10
2022-08-19T17:49:05.667Z,30.42
2022-08-19T17:51:34.033Z,29.62
2022-08-19T17:54:04.488Z,30.06
2022-08-19T17:56:33.000Z,29.08
2022-08-19T17:59:02.829Z,28.77
2022-08-19T18:01:43.977Z,29.02
2022-08-19T18:04:25.065Z,29.52
2022-08-19T18:06:55.309Z,29.56
2022-08-19T18:09:41.162Z,33.38
2022-08-19T18:12:16.467Z,38.27
2022-08-19T18:14:45.144Z,39.28
2022-08-19T18:17:17.405Z,40.65
2022-08-19T18:19:47.778Z,40.90
2022-08-19T18:22:33.765Z,40.28
2022-08-19T18:25:06.380Z,40.90
2022-08-19T18:27:34.571Z,39.80
2022-08-19T18:30:05.596Z,42.38
2022-08-19T18:32:34.517Z,45.78
2022-08-19T18:35:06.606Z,50.47
2022-08-19T18:37:34.547Z,51.97
2022-08-19T18:40:22.124Z,54.55
2022-08-19T18:43:09.121Z,54.64
2022-08-19T18:45:57.034Z,53.79
2022-08-19T18:48:44.306Z,55.67
2022-08-19T18:51:13.591Z,57.07
2022-08-19T18:53:42.007Z,57.64
2022-08-19T18:56:11.162Z,60.49
2022-08-19T18:58:39.709Z,58.59
2022-08-19T19:01:23.446Z,56.85
2022-08-19T19:03:53.539Z,58.81
2022-08-19T19:06:25.675Z,59.04
2022-08-19T19:08:55.072Z,60.63
2022-08-19T19:11:29.853Z,60.92
2022-08-19T19:13:58.570Z,61.26
2022-08-19T19:16:26.863Z,63.89
2022-08-19T19:18:54.884Z,65.40
2022-08-19T19:21:25.686Z,65.74
2022-08-19T19:23:54.759Z,58.99
2022-08-19T19:26:23.073Z,59.89
2022-08-19T19:28:51.693Z,60.63
2022-08-19T19:31:26.755Z,59.72
2022-08-19T19:33:56.358Z,58.40
2022-08-19T19:36:24.485Z,57.48
2022-08-19T19:38:55.643Z,58.33
2022-08-19T19:41:26.537Z,57.75
2022-08-19T19:44:30.762Z,54.35
2022-08-19T19:46:55.873Z,53.11
2022-08-19T19:49:23.897Z,54.01
2022-08-19T19:51:55.695Z,53.38
2022-08-19T19:54:24.049Z,58.03
2022-08-19T19:56:56.649Z,56.94
2022-08-19T19:59:30.268Z,58.38
2022-08-19T20:02:05.939Z,60.09
2022-08-19T20:04:42.667Z,60.54
2022-08-19T20:07:10.910Z,60.57
2022-08-19T20:09:58.817Z,61.67
2022-08-19T20:12:28.068Z,62.02
2022-08-19T20:14:56.368Z,60.60
2022-08-19T20:17:27.518Z,60.92
2022-08-19T20:19:58.096Z,63.30
2022-08-19T20:22:27.856Z,66.86
2022-08-19T20:25:03.798Z,67.75
2022-08-19T20:27:39.799Z,69.05
2022-08-19T20:30:16.010Z,67.90
2022-08-19T20:32:52.375Z,68.80
2022-08-19T20:35:21.834Z,69.93
2022-08-19T20:37:57.881Z,71.72
2022-08-19T20:40:27.538Z,71.67
2022-08-19T20:42:56.991Z,73.11
2022-08-19T20:45:33.700Z,74.99
2022-08-19T20:48:04.351Z,74.46
2022-08-19T20:50:33.269Z,74.96
2022-08-19T20:53:02.162Z,73.66
2022-08-19T20:55:33.066Z,72.97
2022-08-19T20:58:05.797Z,71.47
2022-08-19T21:00:47.357Z,71.62
2022-08-19T21:03:19.911Z,70.55
2022-08-19T21:05:50.991Z,71.42
2022-08-19T21:08:25.172Z,71.56
2022-08-19T21:10:56.854Z,72.11
2022-08-19T21:13:26.975Z,71.88
2022-08-19T21:16:09.020Z,71.08
2022-08-19T21:18:45.340Z,69.84
2022-08-19T21:21:27.068Z,68.76
2022-08-19T21:23:59.697Z,68.87
2022-08-19T21:26:30.805Z,69.57
2022-08-19T21:29:00.579Z,69.58
2022-08-19T21:31:33.294Z,69.17
2022-08-19T21:34:05.685Z,69.57
2022-08-19T21:36:40.302Z,68.49
2022-08-19T21:39:11.570Z,69.89
2022-08-19T21:41:47.320Z,71.86
2022-08-19T21:44:26.377Z,73.43
2022-08-19T21:47:03.907Z,72.55
2022-08-19T21:49:40.420Z,72.37
2022-08-19T21:52:28.177Z,71.45
2022-08-19T21:55:01.580Z,69.44
2022-08-19T21:57:47.301Z,68.21
2022-08-19T22:00:27.672Z,70.92
2022-08-19T22:03:18.946Z,69.64
2022-08-19T22:06:01.160Z,69.08
2022-08-19T22:08:45.551Z,71.31
2022-08-19T22:11:38.514Z,71.36
2022-08-19T22:14:24.999Z,70.35
2022-08-19T22:17:14.300Z,72.97
2022-08-19T22:20:08.170Z,71.06
2022-08-19T22:23:11.230Z,69.23
2022-08-19T22:26:12.622Z,68.46
2022-08-19T22:29:34.003Z,67.97
2022-08-19T22:32:27.149Z,66.77
2022-08-19T22:41:18.594Z,68.55
2022-08-19T22:44:20.816Z,68.61
2022-08-19T22:47:30.220Z,67.63
2022-08-19T22:50:40.374Z,67.63
2022-08-19T22:53:28.050Z,66.76
2022-08-19T22:56:39.304Z,67.79
2022-08-19T22:59:29.149Z,68.48
2022-08-19T23:05:37.950Z,68.44
2022-08-19T23:08:43.944Z,68.99
2022-08-19T23:15:38.793Z,71.61
2022-08-19T23:18:11.952Z,71.55
2022-08-19T23:21:28.262Z,70.44
2022-08-19T23:24:47.123Z,69.55
2022-08-19T23:28:04.819Z,68.80
2022-08-19T23:31:10.261Z,68.09
2022-08-19T23:34:12.250Z,69.11
2022-08-19T23:37:12.975Z,67.63
2022-08-19T23:40:12.507Z,68.36
2022-08-19T23:43:17.894Z,66.68
2022-08-19T23:49:45.412Z,66.46
2022-08-19T23:52:54.278Z,66.69
2022-08-19T23:55:53.044Z,67.90
2022-08-19T23:58:49.085Z,66.33
